createdAt,value
2018-05-02T00:02:00.750Z,101420.96
2018-05-02T00:04:28.379Z,101416.14
2018-05-02T00:06:56.071Z,101426.00
2018-05-02T00:09:23.699Z,101424.14
2018-05-02T00:11:51.395Z,101438.73
2018-05-02T00:14:19.054Z,101440.31
2018-05-02T00:16:46.711Z,101434.63
2018-05-02T00:19:14.327Z,101438.92
2018-05-02T00:21:42.047Z,101446.63
2018-05-02T00:24:09.711Z,101453.08
2018-05-02T00:26:37.371Z,101453.47
2018-05-02T00:29:04.983Z,101459.05
2018-05-02T00:31:32.696Z,101460.74
2018-05-02T00:34:00.297Z,101465.84
2018-05-02T00:36:27.958Z,101464.09
2018-05-02T00:38:55.567Z,101459.70
2018-05-02T00:41:23.197Z,101449.75
2018-05-02T00:43:50.907Z,101452.66
2018-05-02T00:46:18.539Z,101455.11
2018-05-02T00:48:58.072Z,101455.88
2018-05-02T00:51:25.682Z,101445.78
2018-05-02T00:53:53.288Z,101452.16
2018-05-02T00:56:22.449Z,101443.80
2018-05-02T00:58:50.066Z,101455.23
2018-05-02T01:01:17.756Z,101454.17
2018-05-02T01:03:45.363Z,101451.45
2018-05-02T01:06:12.992Z,101459.47
2018-05-02T01:08:40.632Z,101450.30
2018-05-02T01:11:08.255Z,101445.83
2018-05-02T01:13:35.858Z,101450.44
2018-05-02T01:16:03.485Z,101455.43
2018-05-02T01:18:31.181Z,101457.48
2018-05-02T01:20:58.845Z,101458.22
2018-05-02T01:23:26.515Z,101459.33
2018-05-02T01:25:54.143Z,101462.61
2018-05-02T01:28:21.839Z,101466.30
2018-05-02T01:30:49.493Z,101463.51
2018-05-02T01:33:17.099Z,101473.21
2018-05-02T01:35:44.728Z,101479.95
2018-05-02T01:38:12.350Z,101487.94
2018-05-02T01:40:39.994Z,101489.02
2018-05-02T01:43:07.630Z,101486.73
2018-05-02T01:45:35.266Z,101493.86
2018-05-02T01:48:02.895Z,101494.50
2018-05-02T01:50:30.504Z,101497.39
2018-05-02T01:52:58.125Z,101498.06
2018-05-02T01:55:25.812Z,101497.53
2018-05-02T01:57:53.477Z,101502.99
2018-05-02T02:00:21.084Z,101503.33
2018-05-02T02:02:48.722Z,101498.05
2018-05-02T02:05:16.334Z,101503.59
2018-05-02T02:07:43.963Z,101507.79
2018-05-02T02:10:11.571Z,101508.13
2018-05-02T02:12:39.198Z,101526.94
2018-05-02T02:15:06.803Z,101518.64
2018-05-02T02:17:34.474Z,101516.39
2018-05-02T02:20:02.075Z,101518.41
2018-05-02T02:22:29.707Z,101519.13
2018-05-02T02:24:57.315Z,101515.51
2018-05-02T02:27:25.061Z,101520.12
2018-05-02T02:29:52.691Z,101527.73
2018-05-02T02:32:20.347Z,101529.83
2018-05-02T02:34:47.957Z,101536.16
2018-05-02T02:37:15.683Z,101536.00
2018-05-02T02:39:43.282Z,101540.16
2018-05-02T02:42:10.916Z,101534.87
2018-05-02T02:44:38.515Z,101533.92
2018-05-02T02:47:06.166Z,101534.64
2018-05-02T02:49:33.818Z,101533.66
2018-05-02T02:52:01.426Z,101542.09
2018-05-02T02:54:29.116Z,101543.23
2018-05-02T02:56:56.713Z,101536.63
2018-05-02T02:59:24.348Z,101550.25
2018-05-02T03:01:51.995Z,101542.39
2018-05-02T03:04:19.632Z,101547.42
2018-05-02T03:06:47.314Z,101538.80
2018-05-02T03:09:14.951Z,101545.23
2018-05-02T03:11:42.554Z,101543.86
2018-05-02T03:14:10.206Z,101548.48
2018-05-02T03:16:38.126Z,101540.17
2018-05-02T03:19:05.755Z,101548.10
2018-05-02T03:21:33.364Z,101547.11
2018-05-02T03:24:01.059Z,101547.35
2018-05-02T03:26:28.669Z,101545.05
2018-05-02T03:28:56.385Z,101553.86
2018-05-02T03:31:24.055Z,101550.19
2018-05-02T03:33:51.683Z,101550.36
2018-05-02T03:36:19.384Z,101551.39
2018-05-02T03:38:47.014Z,101544.18
2018-05-02T03:41:14.698Z,101553.04
2018-05-02T03:43:42.322Z,101557.11
2018-05-02T03:46:09.930Z,101559.94
2018-05-02T03:48:37.561Z,101563.68
2018-05-02T03:51:05.174Z,101566.95
2018-05-02T03:53:32.810Z,101561.60
2018-05-02T03:56:00.983Z,101557.16
2018-05-02T03:58:28.611Z,101554.03
2018-05-02T04:01:07.923Z,101552.66
2018-05-02T04:03:47.323Z,101552.87
2018-05-02T04:06:26.740Z,101550.97
2018-05-02T04:08:54.414Z,101551.55
2018-05-02T04:11:22.020Z,101559.50
2018-05-02T04:13:49.774Z,101562.02
2018-05-02T04:16:17.510Z,101566.36
2018-05-02T04:18:45.823Z,101567.09
2018-05-02T04:21:13.470Z,101567.73
2018-05-02T04:23:41.111Z,101570.09
2018-05-02T04:26:08.780Z,101575.84
2018-05-02T04:28:36.392Z,101575.64
2018-05-02T04:31:04.022Z,101577.59
2018-05-02T04:33:31.632Z,101573.55
2018-05-02T04:35:59.253Z,101575.52
2018-05-02T04:38:26.864Z,101579.80
2018-05-02T04:40:54.490Z,101574.52
2018-05-02T04:43:22.095Z,101574.12
2018-05-02T04:45:49.723Z,101583.08
2018-05-02T04:48:17.330Z,101588.69
2018-05-02T04:50:45.090Z,101590.44
2018-05-02T04:53:12.699Z,101587.05
2018-05-02T04:55:40.517Z,101584.48
2018-05-02T04:58:08.135Z,101583.20
2018-05-02T05:00:35.765Z,101583.23
2018-05-02T05:03:03.402Z,101578.10
2018-05-02T05:05:31.034Z,101572.09
2018-05-02T05:07:58.638Z,101576.00
2018-05-02T05:10:26.258Z,101581.17
2018-05-02T05:12:53.954Z,101587.97
2018-05-02T05:15:21.599Z,101589.58
2018-05-02T05:17:49.207Z,101590.31
2018-05-02T05:20:16.820Z,101592.33
2018-05-02T05:22:45.021Z,101597.78
2018-05-02T05:25:12.637Z,101602.84
2018-05-02T05:27:40.339Z,101610.55
2018-05-02T05:30:08.003Z,101618.11
2018-05-02T05:32:35.662Z,101628.28
2018-05-02T05:35:03.275Z,101629.45
2018-05-02T05:37:30.903Z,101620.71
2018-05-02T05:39:58.550Z,101632.71
2018-05-02T05:42:26.219Z,101634.25
2018-05-02T05:44:53.875Z,101638.41
2018-05-02T05:47:21.506Z,101635.15
2018-05-02T05:49:49.207Z,101639.78
2018-05-02T05:52:16.863Z,101642.66
2018-05-02T05:54:44.467Z,101642.19
2018-05-02T05:57:12.187Z,101639.17
2018-05-02T05:59:39.859Z,101647.41
2018-05-02T06:02:07.518Z,101643.98
2018-05-02T06:04:35.117Z,101647.45
2018-05-02T06:07:02.822Z,101642.32
2018-05-02T06:09:30.504Z,101644.13
2018-05-02T06:11:58.162Z,101646.36
2018-05-02T06:14:25.774Z,101638.60
2018-05-02T06:16:53.491Z,101641.66
2018-05-02T06:19:21.261Z,101641.67
2018-05-02T06:21:49.122Z,101647.77
2018-05-02T06:24:16.791Z,101646.93
2018-05-02T06:26:44.454Z,101644.31
2018-05-02T06:29:12.110Z,101644.73
2018-05-02T06:31:39.820Z,101646.83
2018-05-02T06:34:07.538Z,101648.49
2018-05-02T06:36:35.147Z,101641.92
2018-05-02T06:39:02.783Z,101644.88
2018-05-02T06:41:30.432Z,101645.67
2018-05-02T06:43:58.075Z,101648.19
2018-05-02T06:46:25.751Z,101652.48
2018-05-02T06:48:53.393Z,101649.35
2018-05-02T06:51:21.083Z,101655.31
2018-05-02T06:53:48.720Z,101654.83
2018-05-02T06:56:16.347Z,101652.09
2018-05-02T06:58:44.062Z,101655.47
2018-05-02T07:01:11.679Z,101660.91
2018-05-02T07:03:39.310Z,101658.16
2018-05-02T07:06:06.917Z,101661.02
2018-05-02T07:08:34.552Z,101658.25
2018-05-02T07:11:02.184Z,101663.29
2018-05-02T07:13:29.889Z,101662.20
2018-05-02T07:15:57.463Z,101656.73
2018-05-02T07:18:25.095Z,101664.31
2018-05-02T07:20:52.695Z,101652.80
2018-05-02T07:23:20.330Z,101653.83
2018-05-02T07:25:47.943Z,101656.09
2018-05-02T07:28:15.570Z,101656.67
2018-05-02T07:30:43.174Z,101653.39
2018-05-02T07:33:10.830Z,101649.71
2018-05-02T07:35:38.433Z,101644.33
2018-05-02T07:38:06.120Z,101648.45
2018-05-02T07:40:33.732Z,101652.16
2018-05-02T07:43:01.346Z,101656.30
2018-05-02T07:45:29.043Z,101650.81
2018-05-02T07:47:56.655Z,101653.11
2018-05-02T07:50:24.286Z,101661.52
2018-05-02T07:52:51.934Z,101655.58
2018-05-02T07:55:19.571Z,101666.20
2018-05-02T07:57:47.183Z,101665.08
2018-05-02T08:00:14.828Z,101665.75
2018-05-02T08:02:42.434Z,101663.36
2018-05-02T08:05:10.058Z,101662.20
2018-05-02T08:07:37.663Z,101657.13
2018-05-02T08:10:05.291Z,101658.55
2018-05-02T08:12:32.930Z,101657.78
2018-05-02T08:15:00.583Z,101656.58
2018-05-02T08:17:28.254Z,101656.23
2018-05-02T08:19:55.878Z,101652.84
2018-05-02T08:22:23.478Z,101664.73
2018-05-02T08:24:51.131Z,101659.97
2018-05-02T08:27:18.738Z,101659.20
2018-05-02T08:29:46.371Z,101662.34
2018-05-02T08:32:14.016Z,101653.66
2018-05-02T08:34:41.682Z,101658.97
2018-05-02T08:37:09.349Z,101651.17
2018-05-02T08:39:36.980Z,101656.03
2018-05-02T08:42:04.599Z,101659.16
2018-05-02T08:44:32.335Z,101650.44
2018-05-02T08:47:00.003Z,101655.67
2018-05-02T08:49:27.632Z,101650.92
2018-05-02T08:51:55.316Z,101655.33
2018-05-02T08:54:22.983Z,101653.16
2018-05-02T08:56:50.610Z,101651.89
2018-05-02T08:59:18.210Z,101654.94
2018-05-02T09:01:45.859Z,101656.27
2018-05-02T09:04:13.465Z,101662.80
2018-05-02T09:06:41.098Z,101660.20
2018-05-02T09:09:08.715Z,101658.46
2018-05-02T09:11:36.419Z,101659.33
2018-05-02T09:14:04.018Z,101660.63
2018-05-02T09:16:31.643Z,101664.55
2018-05-02T09:19:00.018Z,101661.07
2018-05-02T09:21:27.647Z,101651.91
2018-05-02T09:23:55.247Z,101644.07
2018-05-02T09:26:22.870Z,101639.73
2018-05-02T09:28:50.567Z,101642.84
2018-05-02T09:31:18.231Z,101632.80
2018-05-02T09:33:45.899Z,101641.13
2018-05-02T09:36:13.554Z,101628.48
2018-05-02T09:38:41.214Z,101621.52
2018-05-02T09:41:08.877Z,101625.89
2018-05-02T09:43:36.551Z,101623.74
2018-05-02T09:46:04.183Z,101617.63
2018-05-02T09:48:31.795Z,101618.92
2018-05-02T09:50:59.431Z,101626.36
2018-05-02T09:53:27.035Z,101632.05
2018-05-02T09:55:54.666Z,101620.70
2018-05-02T09:58:22.315Z,101611.94
2018-05-02T10:00:49.983Z,101611.51
2018-05-02T10:03:17.600Z,101611.91
2018-05-02T10:05:45.249Z,101615.84
2018-05-02T10:08:12.972Z,101610.55
2018-05-02T10:10:40.577Z,101610.55
2018-05-02T10:13:08.292Z,101603.50
2018-05-02T10:15:35.894Z,101607.88
2018-05-02T10:18:03.528Z,101601.30
2018-05-02T10:20:31.135Z,101602.64
2018-05-02T10:22:58.843Z,101600.86
2018-05-02T10:25:26.502Z,101599.08
2018-05-02T10:27:54.125Z,101600.39
2018-05-02T10:30:21.727Z,101593.34
2018-05-02T10:32:49.394Z,101592.90
2018-05-02T10:35:17.046Z,101581.06
2018-05-02T10:37:44.674Z,101583.68
2018-05-02T10:40:12.284Z,101583.20
2018-05-02T10:42:39.931Z,101578.37
2018-05-02T10:45:07.604Z,101572.64
2018-05-02T10:47:35.231Z,101577.44
2018-05-02T10:50:02.923Z,101568.63
2018-05-02T10:52:30.595Z,101566.39
2018-05-02T10:54:58.203Z,101567.23
2018-05-02T10:57:25.829Z,101570.72
2018-05-02T10:59:53.435Z,101562.43
2018-05-02T11:02:21.070Z,101573.86
2018-05-02T11:04:48.675Z,101569.88
2018-05-02T11:07:16.303Z,101569.86
2018-05-02T11:09:43.915Z,101567.66
2018-05-02T11:12:11.543Z,101567.20
2018-05-02T11:14:39.158Z,101566.33
2018-05-02T11:17:06.800Z,101566.80
2018-05-02T11:19:34.433Z,101568.58
2018-05-02T11:22:02.159Z,101563.34
2018-05-02T11:24:29.785Z,101558.11
2018-05-02T11:26:57.463Z,101561.63
2018-05-02T11:29:25.100Z,101557.28
2018-05-02T11:31:52.778Z,101557.31
2018-05-02T11:34:20.448Z,101557.30
2018-05-02T11:36:48.060Z,101551.59
2018-05-02T11:39:15.686Z,101549.39
2018-05-02T11:41:43.322Z,101552.88
2018-05-02T11:44:10.954Z,101554.20
2018-05-02T11:46:38.553Z,101542.33
2018-05-02T11:49:06.187Z,101546.71
2018-05-02T11:51:33.842Z,101550.17
2018-05-02T11:54:01.473Z,101541.84
2018-05-02T11:56:29.196Z,101544.47
2018-05-02T11:58:56.885Z,101540.08
2018-05-02T12:01:24.493Z,101540.05
2018-05-02T12:03:52.123Z,101538.25
2018-05-02T12:06:19.730Z,101533.01
2018-05-02T12:08:47.430Z,101534.26
2018-05-02T12:11:15.071Z,101541.67
2018-05-02T12:13:42.734Z,101536.79
2018-05-02T12:16:10.452Z,101536.77
2018-05-02T12:18:38.225Z,101535.44
2018-05-02T12:21:05.930Z,101534.14
2018-05-02T12:23:33.588Z,101537.64
2018-05-02T12:26:01.191Z,101540.30
2018-05-02T12:28:28.914Z,101539.45
2018-05-02T12:30:56.519Z,101533.33
2018-05-02T12:33:24.144Z,101523.70
2018-05-02T12:35:51.770Z,101524.98
2018-05-02T12:38:19.379Z,101521.92
2018-05-02T12:40:47.053Z,101517.95
2018-05-02T12:43:14.649Z,101511.34
2018-05-02T12:45:42.295Z,101510.05
2018-05-02T12:48:09.909Z,101510.48
2018-05-02T12:50:37.546Z,101510.52
2018-05-02T12:53:05.170Z,101505.72
2018-05-02T12:55:32.893Z,101493.90
2018-05-02T12:58:00.494Z,101494.81
2018-05-02T13:00:28.127Z,101496.58
2018-05-02T13:02:55.795Z,101489.58
2018-05-02T13:05:23.422Z,101484.34
2018-05-02T13:07:51.031Z,101479.14
2018-05-02T13:10:18.775Z,101478.33
2018-05-02T13:12:46.391Z,101475.30
2018-05-02T13:15:14.023Z,101481.87
2018-05-02T13:17:41.658Z,101466.59
2018-05-02T13:20:09.318Z,101458.72
2018-05-02T13:22:36.931Z,101458.72
2018-05-02T13:25:04.642Z,101451.28
2018-05-02T13:27:32.251Z,101450.39
2018-05-02T13:30:00.069Z,101442.09
2018-05-02T13:32:27.683Z,101442.99
2018-05-02T13:34:55.315Z,101436.39
2018-05-02T13:37:22.953Z,101436.77
2018-05-02T13:39:50.634Z,101433.64
2018-05-02T13:42:18.287Z,101433.63
2018-05-02T13:44:45.942Z,101425.28
2018-05-02T13:47:13.571Z,101421.77
2018-05-02T13:49:41.179Z,101412.12
2018-05-02T13:52:08.827Z,101409.07
2018-05-02T13:54:36.435Z,101403.44
2018-05-02T13:57:04.074Z,101396.44
2018-05-02T13:59:31.678Z,101395.63
2018-05-02T14:01:59.316Z,101389.52
2018-05-02T14:04:26.946Z,101380.35
2018-05-02T14:06:54.701Z,101375.13
2018-05-02T14:09:22.311Z,101365.02
2018-05-02T14:11:50.028Z,101364.16
2018-05-02T14:14:17.642Z,101365.45
2018-05-02T14:16:45.349Z,101365.02
2018-05-02T14:19:13.031Z,101364.20
2018-05-02T14:21:40.687Z,101364.25
2018-05-02T14:24:08.295Z,101362.56
2018-05-02T14:26:35.925Z,101363.52
2018-05-02T14:29:03.529Z,101361.86
2018-05-02T14:31:31.159Z,101357.58
2018-05-02T14:33:58.764Z,101357.20
2018-05-02T14:36:26.447Z,101351.14
2018-05-02T14:38:54.059Z,101349.88
2018-05-02T14:41:21.754Z,101351.23
2018-05-02T14:43:49.362Z,101342.98
2018-05-02T14:46:17.199Z,101344.77
2018-05-02T14:48:44.816Z,101343.50
2018-05-02T14:51:12.541Z,101340.45
2018-05-02T14:53:40.167Z,101340.91
2018-05-02T14:56:07.872Z,101341.81
2018-05-02T14:58:35.523Z,101337.00
2018-05-02T15:01:03.178Z,101341.84
2018-05-02T15:03:30.848Z,101337.92
2018-05-02T15:05:58.449Z,101341.42
2018-05-02T15:08:26.074Z,101337.92
2018-05-02T15:10:53.731Z,101331.84
2018-05-02T15:13:21.500Z,101334.48
2018-05-02T15:15:49.107Z,101333.16
2018-05-02T15:18:16.731Z,101330.11
2018-05-02T15:20:44.383Z,101331.43
2018-05-02T15:23:12.038Z,101330.58
2018-05-02T15:25:39.757Z,101337.09
2018-05-02T15:28:07.372Z,101334.91
2018-05-02T15:30:34.978Z,101331.01
2018-05-02T15:33:02.621Z,101329.67
2018-05-02T15:35:30.234Z,101327.06
2018-05-02T15:37:57.867Z,101322.28
2018-05-02T15:40:25.487Z,101315.73
2018-05-02T15:42:53.128Z,101313.53
2018-05-02T15:45:20.798Z,101309.19
2018-05-02T15:47:48.429Z,101307.86
2018-05-02T15:50:16.039Z,101306.99
2018-05-02T15:52:43.673Z,101310.48
2018-05-02T15:55:11.351Z,101310.92
2018-05-02T15:57:39.009Z,101295.23
2018-05-02T16:00:06.702Z,101296.97
2018-05-02T16:02:34.329Z,101293.45
2018-05-02T16:05:01.942Z,101297.83
2018-05-02T16:07:29.658Z,101309.62
2018-05-02T16:09:57.373Z,101309.16
2018-05-02T16:12:24.991Z,101304.82
2018-05-02T16:14:52.603Z,101302.17
2018-05-02T16:17:20.210Z,101300.41
2018-05-02T16:19:47.843Z,101299.56
2018-05-02T16:22:15.460Z,101299.13
2018-05-02T16:24:43.100Z,101298.22
2018-05-02T16:27:10.706Z,101294.31
2018-05-02T16:29:38.358Z,101286.45
2018-05-02T16:32:05.989Z,101289.96
2018-05-02T16:34:33.643Z,101284.71
2018-05-02T16:37:01.247Z,101286.88
2018-05-02T16:39:28.875Z,101276.41
2018-05-02T16:41:56.488Z,101272.48
2018-05-02T16:44:24.129Z,101274.67
2018-05-02T16:46:51.750Z,101267.27
2018-05-02T16:49:19.383Z,101261.58
2018-05-02T16:51:47.082Z,101265.08
2018-05-02T16:54:14.743Z,101265.52
2018-05-02T16:56:42.352Z,101257.66
2018-05-02T16:59:09.985Z,101259.41
2018-05-02T17:01:37.590Z,101261.99
2018-05-02T17:04:05.270Z,101260.64
2018-05-02T17:06:32.847Z,101263.71
2018-05-02T17:09:00.483Z,101259.34
2018-05-02T17:11:28.166Z,101258.89
2018-05-02T17:13:55.801Z,101260.20
2018-05-02T17:16:23.419Z,101257.14
2018-05-02T17:18:51.055Z,101254.98
2018-05-02T17:21:18.722Z,101262.38
2018-05-02T17:23:46.382Z,101262.78
2018-05-02T17:26:13.997Z,101261.91
2018-05-02T17:28:41.603Z,101258.84
2018-05-02T17:31:09.266Z,101252.75
2018-05-02T17:33:36.939Z,101256.66
2018-05-02T17:36:04.589Z,101254.03
2018-05-02T17:38:32.259Z,101258.84
2018-05-02T17:40:59.895Z,101256.64
2018-05-02T17:43:27.583Z,101261.86
2018-05-02T17:45:55.246Z,101261.87
2018-05-02T17:48:22.902Z,101257.94
2018-05-02T17:50:50.567Z,101254.01
2018-05-02T17:53:18.179Z,101244.41
2018-05-02T17:55:45.894Z,101242.67
2018-05-02T17:58:13.506Z,101242.20
2018-05-02T18:00:41.143Z,101236.52
2018-05-02T18:03:08.774Z,101236.95
2018-05-02T18:05:36.487Z,101240.41
2018-05-02T18:08:04.034Z,101243.88
2018-05-02T18:10:31.690Z,101234.73
2018-05-02T18:12:59.301Z,101226.86
2018-05-02T18:15:26.943Z,101230.33
2018-05-02T18:17:54.551Z,101228.60
2018-05-02T18:20:22.188Z,101222.92
2018-05-02T18:22:49.815Z,101212.47
2018-05-02T18:25:17.454Z,101213.31
2018-05-02T18:27:45.058Z,101213.78
2018-05-02T18:30:12.758Z,101214.65
2018-05-02T18:32:40.416Z,101221.61
2018-05-02T18:35:08.050Z,101225.09
2018-05-02T18:37:35.745Z,101228.57
2018-05-02T18:40:03.416Z,101226.84
2018-05-02T18:42:31.051Z,101222.89
2018-05-02T18:44:58.968Z,101225.08
2018-05-02T18:47:26.602Z,101224.64
2018-05-02T18:49:54.258Z,101225.08
2018-05-02T18:52:21.927Z,101227.69
2018-05-02T18:54:49.534Z,101230.75
2018-05-02T18:57:17.170Z,101228.14
2018-05-02T18:59:44.787Z,101228.57
2018-05-02T19:02:12.423Z,101225.97
2018-05-02T19:04:40.138Z,101227.27
2018-05-02T19:07:07.765Z,101226.81
2018-05-02T19:09:35.463Z,101228.13
2018-05-02T19:12:03.138Z,101225.08
2018-05-02T19:14:30.791Z,101231.56
2018-05-02T19:16:58.422Z,101219.78
2018-05-02T19:19:31.746Z,101224.99
2018-05-02T19:21:59.382Z,101227.14
2018-05-02T19:24:32.651Z,101226.23
2018-05-02T19:27:00.288Z,101224.90
2018-05-02T19:29:27.957Z,101231.83
2018-05-02T19:32:01.150Z,101228.74
2018-05-02T19:34:28.769Z,101228.73
2018-05-02T19:36:56.439Z,101232.63
2018-05-02T19:39:24.046Z,101230.86
2018-05-02T19:41:57.303Z,101231.68
2018-05-02T19:44:25.033Z,101223.84
2018-05-02T19:46:52.727Z,101213.39
2018-05-02T19:49:20.393Z,101215.11
2018-05-02T19:51:53.661Z,101215.95
2018-05-02T19:54:21.279Z,101206.78
2018-05-02T19:56:49.031Z,101211.55
2018-05-02T19:59:16.642Z,101215.44
2018-05-02T20:01:49.938Z,101212.81
2018-05-02T20:04:17.725Z,101225.42
2018-05-02T20:06:45.338Z,101215.42
2018-05-02T20:09:18.566Z,101211.52
2018-05-02T20:11:51.868Z,101211.95
2018-05-02T20:14:19.510Z,101207.14
2018-05-02T20:16:47.126Z,101201.48
2018-05-02T20:19:14.862Z,101196.27
2018-05-02T20:21:42.539Z,101197.55
2018-05-02T20:24:10.166Z,101194.52
2018-05-02T20:26:37.782Z,101194.93
2018-05-02T20:29:05.418Z,101193.60
2018-05-02T20:31:33.028Z,101183.58
2018-05-02T20:34:00.659Z,101182.72
2018-05-02T20:36:28.309Z,101182.26
2018-05-02T20:38:55.962Z,101184.44
2018-05-02T20:41:23.620Z,101179.20
2018-05-02T20:43:51.255Z,101176.59
2018-05-02T20:46:18.879Z,101170.08
2018-05-02T20:48:46.515Z,101167.88
2018-05-02T20:51:14.125Z,101166.56
2018-05-02T20:53:41.771Z,101160.48
2018-05-02T20:56:09.397Z,101151.36
2018-05-02T20:58:37.035Z,101152.20
2018-05-02T21:01:04.650Z,101152.19
2018-05-02T21:03:32.278Z,101152.63
2018-05-02T21:06:00.043Z,101145.22
2018-05-02T21:08:27.710Z,101146.52
2018-05-02T21:10:55.342Z,101136.94
2018-05-02T21:13:23.039Z,101133.88
2018-05-02T21:15:50.666Z,101137.77
2018-05-02T21:18:18.270Z,101136.47
2018-05-02T21:20:46.027Z,101138.63
2018-05-02T21:23:13.682Z,101146.44
2018-05-02T21:25:41.346Z,101141.20
2018-05-02T21:28:09.015Z,101141.62
2018-05-02T21:30:36.679Z,101145.07
2018-05-02T21:33:04.282Z,101129.81
2018-05-02T21:35:31.911Z,101128.50
2018-05-02T21:37:59.563Z,101126.30
2018-05-02T21:40:27.204Z,101125.81
2018-05-02T21:42:54.814Z,101123.20
2018-05-02T21:45:22.452Z,101125.31
2018-05-02T21:47:50.117Z,101116.15
2018-05-02T21:50:17.723Z,101112.63
2018-05-02T21:52:45.335Z,101108.21
2018-05-02T21:55:12.973Z,101114.21
2018-05-02T21:57:40.589Z,101107.22
2018-05-02T22:00:08.215Z,101113.67
2018-05-02T22:02:35.878Z,101114.09
2018-05-02T22:05:03.520Z,101120.58
2018-05-02T22:07:31.129Z,101117.50
2018-05-02T22:09:58.870Z,101113.14
2018-05-02T22:12:26.481Z,101115.71
2018-05-02T22:14:54.118Z,101112.67
2018-05-02T22:17:21.746Z,101110.91
2018-05-02T22:19:49.414Z,101109.61
2018-05-02T22:22:17.075Z,101103.97
2018-05-02T22:24:44.682Z,101094.85
2018-05-02T22:27:12.313Z,101099.19
2018-05-02T22:29:39.927Z,101099.22
2018-05-02T22:32:07.627Z,101092.68
2018-05-02T22:34:35.234Z,101091.37
2018-05-02T22:37:02.868Z,101087.91
2018-05-02T22:39:30.478Z,101084.41
2018-05-02T22:41:58.179Z,101087.42
2018-05-02T22:44:25.793Z,101087.83
2018-05-02T22:46:53.424Z,101088.23
2018-05-02T22:49:21.063Z,101089.94
2018-05-02T22:51:48.703Z,101088.18
2018-05-02T22:54:16.388Z,101091.63
2018-05-02T22:56:44.023Z,101088.53
2018-05-02T22:59:11.715Z,101086.77
2018-05-02T23:01:39.355Z,101083.70
2018-05-02T23:04:06.971Z,101076.30
2018-05-02T23:06:34.608Z,101075.39
2018-05-02T23:09:02.259Z,101074.50
2018-05-02T23:11:29.915Z,101074.91
2018-05-02T23:13:57.531Z,101070.05
2018-05-02T23:16:25.167Z,101067.34
2018-05-02T23:18:52.779Z,101062.08
2018-05-02T23:21:20.407Z,101061.16
2018-05-02T23:23:48.020Z,101055.42
2018-05-02T23:26:15.684Z,101055.75
2018-05-02T23:28:43.352Z,101051.75
2018-05-02T23:31:10.999Z,101051.22
2018-05-02T23:33:38.614Z,101055.48
2018-05-02T23:36:06.252Z,101055.41
2018-05-02T23:38:33.904Z,101044.11
2018-05-02T23:41:01.568Z,101039.67
2018-05-02T23:43:29.202Z,101051.33
2018-05-02T23:45:56.890Z,101045.19
2018-05-02T23:48:24.555Z,101046.81
2018-05-02T23:50:52.214Z,101038.11
2018-05-02T23:53:19.879Z,101035.91
2018-05-02T23:55:47.543Z,101031.07
2018-05-02T23:58:15.175Z,101041.03
